sensor_id;sensor_type;location;lat;lon;timestamp;P1;durP1;ratioP1;P2;durP2;ratioP2
15049;SDS011;7622;42.724;23.250;2023-01-16T00:01:16;32.97;;;17.17;;
15049;SDS011;7622;42.724;23.250;2023-01-16T00:03:44;30.67;;;16.30;;
15049;SDS011;7622;42.724;23.250;2023-01-16T00:06:10;30.80;;;18.03;;
15049;SDS011;7622;42.724;23.250;2023-01-16T00:08:37;29.90;;;15.87;;
15049;SDS011;7622;42.724;23.250;2023-01-16T00:11:05;27.57;;;15.97;;
15049;SDS011;7622;42.724;23.250;2023-01-16T00:13:32;30.47;;;16.27;;
15049;SDS011;7622;42.724;23.250;2023-01-16T00:15:59;30.80;;;17.17;;
15049;SDS011;7622;42.724;23.250;2023-01-16T00:18:26;27.67;;;16.23;;
15049;SDS011;7622;42.724;23.250;2023-01-16T00:20:52;26.57;;;16.20;;
15049;SDS011;7622;42.724;23.250;2023-01-16T00:23:19;33.10;;;17.33;;
15049;SDS011;7622;42.724;23.250;2023-01-16T00:25:46;31.07;;;16.53;;
15049;SDS011;7622;42.724;23.250;2023-01-16T00:28:14;32.20;;;17.10;;
15049;SDS011;7622;42.724;23.250;2023-01-16T00:30:41;30.63;;;16.10;;
15049;SDS011;7622;42.724;23.250;2023-01-16T00:33:09;29.80;;;16.67;;
15049;SDS011;7622;42.724;23.250;2023-01-16T00:35:36;29.67;;;16.80;;
15049;SDS011;7622;42.724;23.250;2023-01-16T00:38:03;31.03;;;17.67;;
15049;SDS011;7622;42.724;23.250;2023-01-16T00:40:30;28.37;;;16.03;;
15049;SDS011;7622;42.724;23.250;2023-01-16T00:42:57;24.53;;;15.13;;
15049;SDS011;7622;42.724;23.250;2023-01-16T00:45:25;32.00;;;16.30;;
15049;SDS011;7622;42.724;23.250;2023-01-16T00:47:52;29.57;;;16.83;;
15049;SDS011;7622;42.724;23.250;2023-01-16T00:50:19;29.63;;;17.13;;
15049;SDS011;7622;42.724;23.250;2023-01-16T00:52:49;25.67;;;15.60;;
15049;SDS011;7622;42.724;23.250;2023-01-16T00:55:17;32.80;;;16.00;;
15049;SDS011;7622;42.724;23.250;2023-01-16T00:57:44;28.80;;;15.40;;
15049;SDS011;7622;42.724;23.250;2023-01-16T01:00:11;31.37;;;16.60;;
15049;SDS011;7622;42.724;23.250;2023-01-16T01:02:39;25.87;;;15.73;;
15049;SDS011;7622;42.724;23.250;2023-01-16T01:05:06;29.80;;;15.93;;
15049;SDS011;7622;42.724;23.250;2023-01-16T01:07:33;25.80;;;15.67;;
15049;SDS011;7622;42.724;23.250;2023-01-16T01:10:00;27.23;;;15.53;;
15049;SDS011;7622;42.724;23.250;2023-01-16T01:12:27;30.20;;;15.13;;
15049;SDS011;7622;42.724;23.250;2023-01-16T01:14:54;24.27;;;14.10;;
15049;SDS011;7622;42.724;23.250;2023-01-16T01:17:20;25.27;;;15.30;;
15049;SDS011;7622;42.724;23.250;2023-01-16T01:19:49;23.70;;;14.37;;
15049;SDS011;7622;42.724;23.250;2023-01-16T01:22:15;27.53;;;14.97;;
15049;SDS011;7622;42.724;23.250;2023-01-16T01:24:42;30.80;;;14.93;;
15049;SDS011;7622;42.724;23.250;2023-01-16T01:27:12;30.60;;;16.57;;
15049;SDS011;7622;42.724;23.250;2023-01-16T01:29:39;31.03;;;15.87;;
15049;SDS011;7622;42.724;23.250;2023-01-16T01:32:06;30.90;;;15.97;;
15049;SDS011;7622;42.724;23.250;2023-01-16T01:34:33;27.57;;;14.93;;
15049;SDS011;7622;42.724;23.250;2023-01-16T01:37:01;28.50;;;15.93;;
15049;SDS011;7622;42.724;23.250;2023-01-16T01:39:29;30.73;;;14.97;;
15049;SDS011;7622;42.724;23.250;2023-01-16T01:41:56;30.53;;;15.60;;
15049;SDS011;7622;42.724;23.250;2023-01-16T01:44:48;32.70;;;16.20;;
15049;SDS011;7622;42.724;23.250;2023-01-16T01:47:18;28.20;;;14.80;;
15049;SDS011;7622;42.724;23.250;2023-01-16T01:49:49;26.00;;;15.70;;
15049;SDS011;7622;42.724;23.250;2023-01-16T01:52:18;28.93;;;14.83;;
15049;SDS011;7622;42.724;23.250;2023-01-16T01:54:48;28.43;;;15.97;;
15049;SDS011;7622;42.724;23.250;2023-01-16T01:57:22;26.93;;;14.80;;
15049;SDS011;7622;42.724;23.250;2023-01-16T01:59:53;25.30;;;15.50;;
15049;SDS011;7622;42.724;23.250;2023-01-16T02:02:25;27.03;;;15.17;;
15049;SDS011;7622;42.724;23.250;2023-01-16T02:04:56;32.03;;;15.27;;
15049;SDS011;7622;42.724;23.250;2023-01-16T02:07:25;30.13;;;15.80;;
15049;SDS011;7622;42.724;23.250;2023-01-16T02:09:55;25.43;;;14.63;;
15049;SDS011;7622;42.724;23.250;2023-01-16T02:12:27;27.63;;;15.53;;
15049;SDS011;7622;42.724;23.250;2023-01-16T02:14:55;27.83;;;14.80;;
15049;SDS011;7622;42.724;23.250;2023-01-16T02:17:24;28.30;;;15.37;;
15049;SDS011;7622;42.724;23.250;2023-01-16T02:20:16;81.70;;;32.70;;
15049;SDS011;7622;42.724;23.250;2023-01-16T02:29:15;24.50;;;14.97;;
15049;SDS011;7622;42.724;23.250;2023-01-16T02:32:02;30.07;;;14.13;;
15049;SDS011;7622;42.724;23.250;2023-01-16T02:34:41;28.03;;;14.57;;
15049;SDS011;7622;42.724;23.250;2023-01-16T02:37:22;29.30;;;16.07;;
15049;SDS011;7622;42.724;23.250;2023-01-16T02:39:57;27.60;;;15.07;;
15049;SDS011;7622;42.724;23.250;2023-01-16T02:42:38;25.27;;;14.67;;
15049;SDS011;7622;42.724;23.250;2023-01-16T02:45:11;27.77;;;15.67;;
15049;SDS011;7622;42.724;23.250;2023-01-16T02:47:46;27.03;;;14.83;;
15049;SDS011;7622;42.724;23.250;2023-01-16T02:50:22;28.00;;;15.33;;
15049;SDS011;7622;42.724;23.250;2023-01-16T02:52:56;28.57;;;14.60;;
15049;SDS011;7622;42.724;23.250;2023-01-16T02:55:27;25.80;;;14.63;;
15049;SDS011;7622;42.724;23.250;2023-01-16T02:57:58;27.53;;;15.20;;
15049;SDS011;7622;42.724;23.250;2023-01-16T03:00:27;24.30;;;14.57;;
15049;SDS011;7622;42.724;23.250;2023-01-16T03:02:57;23.87;;;14.60;;
15049;SDS011;7622;42.724;23.250;2023-01-16T03:05:24;27.27;;;14.93;;
15049;SDS011;7622;42.724;23.250;2023-01-16T03:07:59;25.90;;;14.77;;
15049;SDS011;7622;42.724;23.250;2023-01-16T03:10:46;26.73;;;15.03;;
15049;SDS011;7622;42.724;23.250;2023-01-16T03:13:29;28.53;;;15.33;;
15049;SDS011;7622;42.724;23.250;2023-01-16T03:16:11;27.60;;;14.70;;
15049;SDS011;7622;42.724;23.250;2023-01-16T03:18:49;31.50;;;16.47;;
15049;SDS011;7622;42.724;23.250;2023-01-16T03:21:23;24.90;;;14.97;;
15049;SDS011;7622;42.724;23.250;2023-01-16T03:24:02;25.43;;;15.17;;
15049;SDS011;7622;42.724;23.250;2023-01-16T03:26:34;30.20;;;15.13;;
15049;SDS011;7622;42.724;23.250;2023-01-16T03:29:06;25.23;;;14.13;;
15049;SDS011;7622;42.724;23.250;2023-01-16T03:31:42;25.30;;;14.10;;
15049;SDS011;7622;42.724;23.250;2023-01-16T03:34:17;28.20;;;15.23;;
15049;SDS011;7622;42.724;23.250;2023-01-16T03:36:49;25.90;;;15.00;;
15049;SDS011;7622;42.724;23.250;2023-01-16T03:39:22;25.40;;;14.30;;
15049;SDS011;7622;42.724;23.250;2023-01-16T03:41:53;30.80;;;15.93;;
15049;SDS011;7622;42.724;23.250;2023-01-16T03:44:26;24.80;;;14.43;;
15049;SDS011;7622;42.724;23.250;2023-01-16T03:46:58;22.70;;;14.17;;
15049;SDS011;7622;42.724;23.250;2023-01-16T03:49:29;24.87;;;12.50;;
15049;SDS011;7622;42.724;23.250;2023-01-16T03:52:02;26.87;;;14.70;;
15049;SDS011;7622;42.724;23.250;2023-01-16T03:54:35;24.20;;;14.57;;
15049;SDS011;7622;42.724;23.250;2023-01-16T03:57:09;27.37;;;15.87;;
15049;SDS011;7622;42.724;23.250;2023-01-16T03:59:39;23.73;;;15.27;;
15049;SDS011;7622;42.724;23.250;2023-01-16T04:02:11;25.37;;;14.70;;
15049;SDS011;7622;42.724;23.250;2023-01-16T04:04:43;28.20;;;15.23;;
15049;SDS011;7622;42.724;23.250;2023-01-16T04:07:17;24.90;;;15.07;;
15049;SDS011;7622;42.724;23.250;2023-01-16T04:09:48;23.37;;;14.53;;
15049;SDS011;7622;42.724;23.250;2023-01-16T04:12:19;23.80;;;14.23;;
15049;SDS011;7622;42.724;23.250;2023-01-16T04:14:51;27.37;;;15.13;;
15049;SDS011;7622;42.724;23.250;2023-01-16T04:17:21;26.03;;;14.43;;
15049;SDS011;7622;42.724;23.250;2023-01-16T04:19:50;25.60;;;14.73;;
15049;SDS011;7622;42.724;23.250;2023-01-16T04:22:18;24.13;;;13.67;;
15049;SDS011;7622;42.724;23.250;2023-01-16T04:24:46;23.57;;;14.43;;
15049;SDS011;7622;42.724;23.250;2023-01-16T04:27:14;23.97;;;14.57;;
15049;SDS011;7622;42.724;23.250;2023-01-16T04:29:41;25.37;;;14.53;;
15049;SDS011;7622;42.724;23.250;2023-01-16T04:32:08;28.47;;;15.60;;
15049;SDS011;7622;42.724;23.250;2023-01-16T04:34:35;25.20;;;15.00;;
15049;SDS011;7622;42.724;23.250;2023-01-16T04:37:03;28.63;;;15.73;;
15049;SDS011;7622;42.724;23.250;2023-01-16T04:39:30;25.67;;;15.00;;
15049;SDS011;7622;42.724;23.250;2023-01-16T04:41:57;24.93;;;14.73;;
15049;SDS011;7622;42.724;23.250;2023-01-16T04:44:24;26.13;;;15.77;;
15049;SDS011;7622;42.724;23.250;2023-01-16T04:46:51;27.93;;;15.83;;
15049;SDS011;7622;42.724;23.250;2023-01-16T04:49:19;28.87;;;16.13;;
15049;SDS011;7622;42.724;23.250;2023-01-16T04:51:46;25.97;;;15.47;;
15049;SDS011;7622;42.724;23.250;2023-01-16T04:54:14;30.03;;;17.37;;
15049;SDS011;7622;42.724;23.250;2023-01-16T04:56:43;27.23;;;15.93;;
15049;SDS011;7622;42.724;23.250;2023-01-16T04:59:10;34.53;;;18.50;;
15049;SDS011;7622;42.724;23.250;2023-01-16T05:01:38;34.10;;;18.17;;
15049;SDS011;7622;42.724;23.250;2023-01-16T05:04:05;29.80;;;17.27;;
15049;SDS011;7622;42.724;23.250;2023-01-16T05:06:34;35.60;;;17.53;;
15049;SDS011;7622;42.724;23.250;2023-01-16T05:09:02;34.63;;;17.73;;
15049;SDS011;7622;42.724;23.250;2023-01-16T05:11:31;31.13;;;17.63;;
15049;SDS011;7622;42.724;23.250;2023-01-16T05:13:59;31.07;;;16.97;;
15049;SDS011;7622;42.724;23.250;2023-01-16T05:16:25;37.27;;;18.43;;
15049;SDS011;7622;42.724;23.250;2023-01-16T05:18:52;36.80;;;18.27;;
15049;SDS011;7622;42.724;23.250;2023-01-16T05:21:19;37.03;;;17.77;;
15049;SDS011;7622;42.724;23.250;2023-01-16T05:23:46;35.00;;;18.63;;
15049;SDS011;7622;42.724;23.250;2023-01-16T05:26:12;40.17;;;19.83;;
15049;SDS011;7622;42.724;23.250;2023-01-16T05:28:41;50.60;;;21.17;;
15049;SDS011;7622;42.724;23.250;2023-01-16T05:31:07;59.27;;;19.97;;
15049;SDS011;7622;42.724;23.250;2023-01-16T05:33:34;73.17;;;19.77;;
15049;SDS011;7622;42.724;23.250;2023-01-16T05:36:01;59.33;;;19.53;;
15049;SDS011;7622;42.724;23.250;2023-01-16T05:38:28;69.27;;;19.77;;
15049;SDS011;7622;42.724;23.250;2023-01-16T05:40:55;58.27;;;19.77;;
15049;SDS011;7622;42.724;23.250;2023-01-16T05:43:22;90.27;;;20.63;;
15049;SDS011;7622;42.724;23.250;2023-01-16T05:45:50;61.50;;;19.23;;
15049;SDS011;7622;42.724;23.250;2023-01-16T05:48:16;54.53;;;19.50;;
15049;SDS011;7622;42.724;23.250;2023-01-16T05:50:43;47.47;;;19.43;;
15049;SDS011;7622;42.724;23.250;2023-01-16T05:53:10;48.40;;;19.83;;
15049;SDS011;7622;42.724;23.250;2023-01-16T05:55:39;39.30;;;17.77;;
15049;SDS011;7622;42.724;23.250;2023-01-16T05:58:08;39.80;;;17.40;;
15049;SDS011;7622;42.724;23.250;2023-01-16T06:00:36;45.03;;;18.90;;
15049;SDS011;7622;42.724;23.250;2023-01-16T06:03:04;42.80;;;19.83;;
15049;SDS011;7622;42.724;23.250;2023-01-16T06:05:31;39.73;;;18.33;;
15049;SDS011;7622;42.724;23.250;2023-01-16T06:07:59;47.60;;;19.80;;
15049;SDS011;7622;42.724;23.250;2023-01-16T06:10:26;39.00;;;19.13;;
15049;SDS011;7622;42.724;23.250;2023-01-16T06:12:53;40.33;;;19.80;;
15049;SDS011;7622;42.724;23.250;2023-01-16T06:15:19;48.27;;;20.57;;
15049;SDS011;7622;42.724;23.250;2023-01-16T06:17:46;44.87;;;20.23;;
15049;SDS011;7622;42.724;23.250;2023-01-16T06:20:17;47.43;;;20.43;;
15049;SDS011;7622;42.724;23.250;2023-01-16T06:22:44;45.37;;;21.37;;
15049;SDS011;7622;42.724;23.250;2023-01-16T06:25:11;51.87;;;21.03;;
15049;SDS011;7622;42.724;23.250;2023-01-16T06:27:38;58.53;;;21.27;;
15049;SDS011;7622;42.724;23.250;2023-01-16T06:30:05;48.13;;;20.30;;
15049;SDS011;7622;42.724;23.250;2023-01-16T06:32:33;47.90;;;21.33;;
15049;SDS011;7622;42.724;23.250;2023-01-16T06:35:00;48.23;;;22.07;;
15049;SDS011;7622;42.724;23.250;2023-01-16T06:37:28;47.47;;;21.13;;
15049;SDS011;7622;42.724;23.250;2023-01-16T06:39:55;55.67;;;21.83;;
15049;SDS011;7622;42.724;23.250;2023-01-16T06:42:24;50.83;;;22.03;;
15049;SDS011;7622;42.724;23.250;2023-01-16T06:44:51;58.07;;;23.83;;
15049;SDS011;7622;42.724;23.250;2023-01-16T06:47:18;61.00;;;23.87;;
15049;SDS011;7622;42.724;23.250;2023-01-16T06:49:45;52.13;;;20.37;;
15049;SDS011;7622;42.724;23.250;2023-01-16T06:52:12;50.30;;;21.50;;
15049;SDS011;7622;42.724;23.250;2023-01-16T06:54:41;57.63;;;24.07;;
15049;SDS011;7622;42.724;23.250;2023-01-16T06:57:10;49.00;;;22.73;;
15049;SDS011;7622;42.724;23.250;2023-01-16T06:59:40;46.90;;;22.53;;
15049;SDS011;7622;42.724;23.250;2023-01-16T07:02:10;48.23;;;22.50;;
15049;SDS011;7622;42.724;23.250;2023-01-16T07:04:40;57.67;;;23.33;;
15049;SDS011;7622;42.724;23.250;2023-01-16T07:07:11;54.83;;;23.40;;
15049;SDS011;7622;42.724;23.250;2023-01-16T07:09:42;53.77;;;22.23;;
15049;SDS011;7622;42.724;23.250;2023-01-16T07:12:11;47.70;;;21.60;;
15049;SDS011;7622;42.724;23.250;2023-01-16T07:14:37;41.67;;;20.53;;
15049;SDS011;7622;42.724;23.250;2023-01-16T07:17:22;47.57;;;19.83;;
15049;SDS011;7622;42.724;23.250;2023-01-16T07:20:09;41.27;;;20.73;;
15049;SDS011;7622;42.724;23.250;2023-01-16T07:22:56;35.37;;;18.87;;
15049;SDS011;7622;42.724;23.250;2023-01-16T07:25:25;50.07;;;21.60;;
15049;SDS011;7622;42.724;23.250;2023-01-16T07:27:57;48.10;;;21.80;;
15049;SDS011;7622;42.724;23.250;2023-01-16T07:30:24;46.47;;;22.00;;
15049;SDS011;7622;42.724;23.250;2023-01-16T07:32:51;49.70;;;22.80;;
15049;SDS011;7622;42.724;23.250;2023-01-16T07:35:18;44.40;;;20.17;;
15049;SDS011;7622;42.724;23.250;2023-01-16T07:37:44;42.17;;;18.60;;
15049;SDS011;7622;42.724;23.250;2023-01-16T07:40:12;41.70;;;20.37;;
15049;SDS011;7622;42.724;23.250;2023-01-16T07:42:40;41.03;;;20.63;;
15049;SDS011;7622;42.724;23.250;2023-01-16T07:45:07;40.83;;;20.00;;
15049;SDS011;7622;42.724;23.250;2023-01-16T07:47:35;38.00;;;19.27;;
15049;SDS011;7622;42.724;23.250;2023-01-16T07:50:02;39.33;;;20.40;;
15049;SDS011;7622;42.724;23.250;2023-01-16T07:52:29;37.70;;;19.63;;
15049;SDS011;7622;42.724;23.250;2023-01-16T07:54:56;38.40;;;19.40;;
15049;SDS011;7622;42.724;23.250;2023-01-16T07:57:23;43.53;;;21.60;;
15049;SDS011;7622;42.724;23.250;2023-01-16T07:59:52;41.00;;;20.43;;
15049;SDS011;7622;42.724;23.250;2023-01-16T08:02:19;50.87;;;23.40;;
15049;SDS011;7622;42.724;23.250;2023-01-16T08:04:46;58.23;;;26.00;;
15049;SDS011;7622;42.724;23.250;2023-01-16T08:07:13;52.83;;;24.67;;
15049;SDS011;7622;42.724;23.250;2023-01-16T08:09:40;55.07;;;28.20;;
15049;SDS011;7622;42.724;23.250;2023-01-16T08:12:06;62.03;;;30.03;;
15049;SDS011;7622;42.724;23.250;2023-01-16T08:14:33;55.47;;;27.30;;
15049;SDS011;7622;42.724;23.250;2023-01-16T08:17:01;56.10;;;27.10;;
15049;SDS011;7622;42.724;23.250;2023-01-16T08:19:28;51.03;;;27.23;;
15049;SDS011;7622;42.724;23.250;2023-01-16T08:21:55;52.67;;;25.93;;
15049;SDS011;7622;42.724;23.250;2023-01-16T08:24:25;50.47;;;26.33;;
15049;SDS011;7622;42.724;23.250;2023-01-16T08:26:54;56.17;;;27.37;;
15049;SDS011;7622;42.724;23.250;2023-01-16T08:29:21;55.10;;;26.87;;
15049;SDS011;7622;42.724;23.250;2023-01-16T08:31:48;50.43;;;25.77;;
15049;SDS011;7622;42.724;23.250;2023-01-16T08:34:16;51.97;;;27.13;;
15049;SDS011;7622;42.724;23.250;2023-01-16T08:36:43;53.83;;;27.37;;
15049;SDS011;7622;42.724;23.250;2023-01-16T08:39:10;55.37;;;27.73;;
15049;SDS011;7622;42.724;23.250;2023-01-16T08:41:38;62.57;;;30.83;;
15049;SDS011;7622;42.724;23.250;2023-01-16T08:44:22;63.13;;;30.30;;
15049;SDS011;7622;42.724;23.250;2023-01-16T08:47:10;67.77;;;31.13;;
15049;SDS011;7622;42.724;23.250;2023-01-16T08:49:54;80.07;;;36.97;;
15049;SDS011;7622;42.724;23.250;2023-01-16T08:52:39;80.93;;;36.07;;
15049;SDS011;7622;42.724;23.250;2023-01-16T08:55:06;80.13;;;36.43;;
15049;SDS011;7622;42.724;23.250;2023-01-16T08:57:33;90.47;;;40.30;;
15049;SDS011;7622;42.724;23.250;2023-01-16T09:00:00;95.10;;;43.53;;
15049;SDS011;7622;42.724;23.250;2023-01-16T09:02:28;90.43;;;42.03;;
15049;SDS011;7622;42.724;23.250;2023-01-16T09:04:56;94.30;;;42.10;;
15049;SDS011;7622;42.724;23.250;2023-01-16T09:07:23;94.13;;;42.10;;
15049;SDS011;7622;42.724;23.250;2023-01-16T09:09:49;93.57;;;39.80;;
15049;SDS011;7622;42.724;23.250;2023-01-16T09:12:16;84.50;;;39.77;;
15049;SDS011;7622;42.724;23.250;2023-01-16T09:15:00;87.07;;;38.20;;
15049;SDS011;7622;42.724;23.250;2023-01-16T09:17:28;91.37;;;39.30;;
15049;SDS011;7622;42.724;23.250;2023-01-16T09:19:56;66.43;;;34.10;;
15049;SDS011;7622;42.724;23.250;2023-01-16T09:22:23;79.70;;;37.63;;
15049;SDS011;7622;42.724;23.250;2023-01-16T09:24:52;72.13;;;34.50;;
15049;SDS011;7622;42.724;23.250;2023-01-16T09:27:19;78.20;;;36.33;;
15049;SDS011;7622;42.724;23.250;2023-01-16T09:29:46;68.53;;;34.30;;
15049;SDS011;7622;42.724;23.250;2023-01-16T09:32:13;62.87;;;32.13;;
15049;SDS011;7622;42.724;23.250;2023-01-16T09:34:42;58.00;;;31.77;;
15049;SDS011;7622;42.724;23.250;2023-01-16T09:37:10;61.27;;;32.17;;
15049;SDS011;7622;42.724;23.250;2023-01-16T09:39:37;55.53;;;30.13;;
15049;SDS011;7622;42.724;23.250;2023-01-16T09:42:26;51.03;;;28.07;;
15049;SDS011;7622;42.724;23.250;2023-01-16T09:45:21;52.70;;;26.00;;
15049;SDS011;7622;42.724;23.250;2023-01-16T09:47:51;54.93;;;26.43;;
15049;SDS011;7622;42.724;23.250;2023-01-16T09:50:24;35.30;;;20.97;;
15049;SDS011;7622;42.724;23.250;2023-01-16T09:52:58;34.27;;;19.30;;
15049;SDS011;7622;42.724;23.250;2023-01-16T09:55:44;33.23;;;18.73;;
15049;SDS011;7622;42.724;23.250;2023-01-16T09:58:30;35.30;;;19.23;;
15049;SDS011;7622;42.724;23.250;2023-01-16T10:01:04;36.10;;;21.47;;
15049;SDS011;7622;42.724;23.250;2023-01-16T10:03:34;35.90;;;19.43;;
15049;SDS011;7622;42.724;23.250;2023-01-16T10:06:09;38.90;;;20.20;;
15049;SDS011;7622;42.724;23.250;2023-01-16T10:08:54;38.40;;;20.33;;
15049;SDS011;7622;42.724;23.250;2023-01-16T10:11:31;37.13;;;19.17;;
15049;SDS011;7622;42.724;23.250;2023-01-16T10:14:17;39.63;;;20.60;;
15049;SDS011;7622;42.724;23.250;2023-01-16T10:16:58;47.50;;;22.47;;
15049;SDS011;7622;42.724;23.250;2023-01-16T10:19:40;36.50;;;20.43;;
15049;SDS011;7622;42.724;23.250;2023-01-16T10:22:30;37.13;;;20.47;;
15049;SDS011;7622;42.724;23.250;2023-01-16T10:25:14;46.43;;;24.67;;
15049;SDS011;7622;42.724;23.250;2023-01-16T10:27:49;53.90;;;28.20;;
15049;SDS011;7622;42.724;23.250;2023-01-16T10:30:23;57.83;;;28.57;;
15049;SDS011;7622;42.724;23.250;2023-01-16T10:32:57;61.53;;;31.80;;
15049;SDS011;7622;42.724;23.250;2023-01-16T10:35:31;67.90;;;33.47;;
15049;SDS011;7622;42.724;23.250;2023-01-16T10:38:09;57.37;;;28.47;;
15049;SDS011;7622;42.724;23.250;2023-01-16T10:40:48;60.90;;;31.43;;
15049;SDS011;7622;42.724;23.250;2023-01-16T10:43:19;76.47;;;36.83;;
15049;SDS011;7622;42.724;23.250;2023-01-16T10:46:14;58.27;;;30.90;;
15049;SDS011;7622;42.724;23.250;2023-01-16T10:49:01;63.47;;;33.97;;
15049;SDS011;7622;42.724;23.250;2023-01-16T10:51:45;64.43;;;34.23;;
15049;SDS011;7622;42.724;23.250;2023-01-16T10:54:12;61.60;;;33.40;;
15049;SDS011;7622;42.724;23.250;2023-01-16T10:56:41;60.63;;;33.97;;
15049;SDS011;7622;42.724;23.250;2023-01-16T10:59:08;37.20;;;21.07;;
15049;SDS011;7622;42.724;23.250;2023-01-16T11:01:37;31.03;;;19.03;;
15049;SDS011;7622;42.724;23.250;2023-01-16T11:04:06;27.80;;;16.83;;
15049;SDS011;7622;42.724;23.250;2023-01-16T11:06:37;32.43;;;18.03;;
15049;SDS011;7622;42.724;23.250;2023-01-16T11:09:16;35.77;;;18.97;;
15049;SDS011;7622;42.724;23.250;2023-01-16T11:11:50;32.60;;;18.40;;
15049;SDS011;7622;42.724;23.250;2023-01-16T11:14:40;31.07;;;17.20;;
15049;SDS011;7622;42.724;23.250;2023-01-16T11:17:26;31.17;;;17.03;;
15049;SDS011;7622;42.724;23.250;2023-01-16T11:20:13;30.63;;;18.00;;
15049;SDS011;7622;42.724;23.250;2023-01-16T11:22:44;26.17;;;17.23;;
15049;SDS011;7622;42.724;23.250;2023-01-16T11:25:15;28.00;;;16.20;;
15049;SDS011;7622;42.724;23.250;2023-01-16T11:27:46;34.50;;;17.53;;
15049;SDS011;7622;42.724;23.250;2023-01-16T11:30:17;36.43;;;16.93;;
15049;SDS011;7622;42.724;23.250;2023-01-16T11:32:46;25.60;;;17.40;;
15049;SDS011;7622;42.724;23.250;2023-01-16T11:35:15;30.73;;;18.07;;
15049;SDS011;7622;42.724;23.250;2023-01-16T11:37:48;28.83;;;18.23;;
15049;SDS011;7622;42.724;23.250;2023-01-16T11:40:19;34.33;;;19.27;;
15049;SDS011;7622;42.724;23.250;2023-01-16T11:42:53;31.80;;;18.37;;
15049;SDS011;7622;42.724;23.250;2023-01-16T11:45:45;31.03;;;17.80;;
15049;SDS011;7622;42.724;23.250;2023-01-16T11:48:39;35.77;;;18.83;;
15049;SDS011;7622;42.724;23.250;2023-01-16T11:51:11;32.77;;;19.03;;
15049;SDS011;7622;42.724;23.250;2023-01-16T11:53:39;34.40;;;18.47;;
15049;SDS011;7622;42.724;23.250;2023-01-16T11:59:15;24.20;;;15.43;;
15049;SDS011;7622;42.724;23.250;2023-01-16T12:02:02;31.07;;;16.13;;
15049;SDS011;7622;42.724;23.250;2023-01-16T12:04:45;32.03;;;17.43;;
15049;SDS011;7622;42.724;23.250;2023-01-16T12:07:31;23.27;;;15.33;;
15049;SDS011;7622;42.724;23.250;2023-01-16T12:10:08;28.23;;;17.03;;
15049;SDS011;7622;42.724;23.250;2023-01-16T12:12:45;27.87;;;16.30;;
15049;SDS011;7622;42.724;23.250;2023-01-16T12:15:39;23.40;;;13.40;;
15049;SDS011;7622;42.724;23.250;2023-01-16T12:18:20;23.40;;;14.30;;
15049;SDS011;7622;42.724;23.250;2023-01-16T12:20:53;27.87;;;15.50;;
15049;SDS011;7622;42.724;23.250;2023-01-16T12:23:38;28.43;;;15.07;;
15049;SDS011;7622;42.724;23.250;2023-01-16T12:26:18;24.50;;;14.07;;
15049;SDS011;7622;42.724;23.250;2023-01-16T12:28:53;22.93;;;14.90;;
15049;SDS011;7622;42.724;23.250;2023-01-16T12:31:43;25.03;;;14.83;;
15049;SDS011;7622;42.724;23.250;2023-01-16T12:34:31;21.73;;;13.13;;
15049;SDS011;7622;42.724;23.250;2023-01-16T12:37:15;25.20;;;14.57;;
15049;SDS011;7622;42.724;23.250;2023-01-16T12:39:53;28.93;;;16.27;;
15049;SDS011;7622;42.724;23.250;2023-01-16T12:42:34;27.10;;;15.50;;
15049;SDS011;7622;42.724;23.250;2023-01-16T12:45:28;28.50;;;16.70;;
15049;SDS011;7622;42.724;23.250;2023-01-16T12:48:11;34.58;;;20.80;;
15049;SDS011;7622;42.724;23.250;2023-01-16T12:50:52;28.50;;;17.77;;
15049;SDS011;7622;42.724;23.250;2023-01-16T12:53:36;29.30;;;17.07;;
15049;SDS011;7622;42.724;23.250;2023-01-16T12:56:28;24.13;;;14.50;;
15049;SDS011;7622;42.724;23.250;2023-01-16T12:59:03;30.07;;;16.03;;
15049;SDS011;7622;42.724;23.250;2023-01-16T13:01:37;31.13;;;16.53;;
15049;SDS011;7622;42.724;23.250;2023-01-16T13:04:11;25.23;;;14.27;;
15049;SDS011;7622;42.724;23.250;2023-01-16T13:06:45;21.08;;;15.38;;
15049;SDS011;7622;42.724;23.250;2023-01-16T13:09:14;22.90;;;13.57;;
15049;SDS011;7622;42.724;23.250;2023-01-16T13:11:51;18.03;;;11.50;;
15049;SDS011;7622;42.724;23.250;2023-01-16T13:14:41;19.80;;;11.73;;
15049;SDS011;7622;42.724;23.250;2023-01-16T13:17:12;19.73;;;10.87;;
15049;SDS011;7622;42.724;23.250;2023-01-16T13:19:46;19.43;;;9.73;;
15049;SDS011;7622;42.724;23.250;2023-01-16T13:22:18;23.60;;;12.50;;
15049;SDS011;7622;42.724;23.250;2023-01-16T13:24:50;21.37;;;10.77;;
15049;SDS011;7622;42.724;23.250;2023-01-16T13:27:24;24.10;;;12.33;;
15049;SDS011;7622;42.724;23.250;2023-01-16T13:29:59;24.90;;;13.47;;
15049;SDS011;7622;42.724;23.250;2023-01-16T13:32:30;27.37;;;13.07;;
15049;SDS011;7622;42.724;23.250;2023-01-16T13:35:02;21.50;;;13.40;;
15049;SDS011;7622;42.724;23.250;2023-01-16T13:37:41;23.80;;;12.97;;
15049;SDS011;7622;42.724;23.250;2023-01-16T13:40:27;29.17;;;14.97;;
15049;SDS011;7622;42.724;23.250;2023-01-16T13:43:01;26.23;;;15.13;;
15049;SDS011;7622;42.724;23.250;2023-01-16T13:45:49;23.83;;;13.93;;
15049;SDS011;7622;42.724;23.250;2023-01-16T13:48:19;22.20;;;12.77;;
15049;SDS011;7622;42.724;23.250;2023-01-16T13:50:51;26.67;;;13.57;;
15049;SDS011;7622;42.724;23.250;2023-01-16T13:53:24;21.67;;;13.47;;
15049;SDS011;7622;42.724;23.250;2023-01-16T13:56:00;25.30;;;14.10;;
15049;SDS011;7622;42.724;23.250;2023-01-16T13:58:32;24.23;;;13.77;;
15049;SDS011;7622;42.724;23.250;2023-01-16T14:01:04;21.17;;;9.80;;
15049;SDS011;7622;42.724;23.250;2023-01-16T14:03:32;20.37;;;13.80;;
15049;SDS011;7622;42.724;23.250;2023-01-16T14:09:06;29.77;;;14.93;;
15049;SDS011;7622;42.724;23.250;2023-01-16T14:11:58;19.90;;;12.90;;
15049;SDS011;7622;42.724;23.250;2023-01-16T14:14:31;25.87;;;13.63;;
15049;SDS011;7622;42.724;23.250;2023-01-16T14:20:36;25.20;;;14.93;;
15049;SDS011;7622;42.724;23.250;2023-01-16T14:23:21;29.53;;;14.60;;
15049;SDS011;7622;42.724;23.250;2023-01-16T14:26:08;30.50;;;15.73;;
15049;SDS011;7622;42.724;23.250;2023-01-16T14:28:45;26.60;;;14.20;;
15049;SDS011;7622;42.724;23.250;2023-01-16T14:31:21;25.23;;;13.80;;
15049;SDS011;7622;42.724;23.250;2023-01-16T14:33:50;30.27;;;15.40;;
15049;SDS011;7622;42.724;23.250;2023-01-16T14:36:21;26.70;;;13.53;;
15049;SDS011;7622;42.724;23.250;2023-01-16T14:38:51;34.07;;;14.30;;
15049;SDS011;7622;42.724;23.250;2023-01-16T14:41:22;25.40;;;13.57;;
15049;SDS011;7622;42.724;23.250;2023-01-16T14:44:14;23.57;;;13.23;;
15049;SDS011;7622;42.724;23.250;2023-01-16T14:47:09;27.60;;;15.37;;
15049;SDS011;7622;42.724;23.250;2023-01-16T14:50:07;22.80;;;13.00;;
15049;SDS011;7622;42.724;23.250;2023-01-16T14:56:08;29.00;;;15.43;;
15049;SDS011;7622;42.724;23.250;2023-01-16T14:58:47;29.00;;;16.13;;
15049;SDS011;7622;42.724;23.250;2023-01-16T15:01:25;29.27;;;16.93;;
15049;SDS011;7622;42.724;23.250;2023-01-16T15:04:11;33.43;;;17.57;;
15049;SDS011;7622;42.724;23.250;2023-01-16T15:06:41;33.57;;;17.40;;
15049;SDS011;7622;42.724;23.250;2023-01-16T15:09:13;27.17;;;15.93;;
15049;SDS011;7622;42.724;23.250;2023-01-16T15:11:48;30.37;;;15.47;;